createdAt,value
2023-05-19T00:02:26.449Z,3.10
2023-05-19T00:04:54.136Z,3.55
2023-05-19T00:07:26.708Z,3.47
2023-05-19T00:09:54.138Z,3.38
2023-05-19T00:12:21.698Z,3.40
2023-05-19T00:14:49.279Z,3.83
2023-05-19T00:17:17.288Z,3.25
2023-05-19T00:19:45.438Z,3.37
2023-05-19T00:22:12.795Z,3.55
2023-05-19T00:24:40.008Z,3.60
2023-05-19T00:27:07.304Z,4.20
2023-05-19T00:29:34.628Z,3.85
2023-05-19T00:32:01.874Z,3.87
2023-05-19T00:34:29.063Z,4.20
2023-05-19T00:36:57.330Z,4.00
2023-05-19T00:39:24.596Z,4.28
2023-05-19T00:41:55.303Z,4.10
2023-05-19T00:44:22.648Z,3.90
2023-05-19T00:46:50.255Z,4.25
2023-05-19T00:49:17.938Z,4.65
2023-05-19T00:51:45.128Z,4.03
2023-05-19T00:54:12.359Z,4.45
2023-05-19T00:56:40.742Z,4.83
2023-05-19T00:59:08.941Z,5.03
2023-05-19T01:01:39.341Z,4.45
2023-05-19T01:04:10.173Z,5.00
2023-05-19T01:06:38.944Z,4.68
2023-05-19T01:09:06.342Z,4.60
2023-05-19T01:11:37.099Z,4.72
2023-05-19T01:14:04.307Z,4.45
2023-05-19T01:16:37.862Z,4.40
2023-05-19T01:19:20.092Z,4.25
2023-05-19T01:21:53.613Z,4.37
2023-05-19T01:24:39.577Z,4.55
2023-05-19T01:27:17.835Z,4.07
2023-05-19T01:30:17.476Z,4.68
2023-05-19T01:32:45.470Z,4.68
2023-05-19T01:35:13.097Z,5.23
2023-05-19T01:37:41.162Z,4.78
2023-05-19T01:40:10.867Z,5.15
2023-05-19T01:42:40.148Z,4.80
2023-05-19T01:45:10.744Z,4.72
2023-05-19T01:47:41.597Z,5.47
2023-05-19T01:50:09.050Z,5.18
2023-05-19T01:52:36.289Z,5.15
2023-05-19T01:55:03.753Z,5.50
2023-05-19T01:57:47.596Z,4.88
2023-05-19T02:00:23.804Z,4.90
2023-05-19T02:03:05.260Z,5.20
2023-05-19T02:05:32.637Z,5.70
2023-05-19T02:08:13.445Z,5.30
2023-05-19T02:10:41.853Z,5.00
2023-05-19T02:13:11.630Z,5.00
2023-05-19T02:15:40.711Z,4.65
2023-05-19T02:18:10.481Z,4.25
2023-05-19T02:20:38.929Z,4.07
2023-05-19T02:23:07.469Z,3.40
2023-05-19T02:25:35.330Z,3.83
2023-05-19T02:28:02.891Z,4.03
2023-05-19T02:30:32.527Z,3.70
2023-05-19T02:33:01.035Z,3.75
2023-05-19T02:35:28.616Z,3.67
2023-05-19T02:37:55.800Z,3.97
2023-05-19T02:40:23.300Z,3.70
2023-05-19T02:42:50.604Z,4.20
2023-05-19T02:45:17.898Z,4.03
2023-05-19T02:47:45.261Z,4.10
2023-05-19T02:50:12.736Z,4.27
2023-05-19T02:52:40.343Z,4.25
2023-05-19T02:55:07.903Z,4.50
2023-05-19T02:57:35.875Z,4.60
2023-05-19T03:00:03.516Z,4.35
2023-05-19T03:02:31.092Z,3.90
2023-05-19T03:04:58.401Z,4.70
2023-05-19T03:07:25.729Z,4.82
2023-05-19T03:09:55.089Z,4.32
2023-05-19T03:12:22.634Z,4.25
2023-05-19T03:14:49.974Z,5.13
2023-05-19T03:17:17.601Z,4.88
2023-05-19T03:19:44.990Z,4.32
2023-05-19T03:22:12.304Z,5.32
2023-05-19T03:24:39.831Z,4.40
2023-05-19T03:27:07.914Z,4.70
2023-05-19T03:29:35.304Z,4.45
2023-05-19T03:32:02.914Z,4.65
2023-05-19T03:34:33.109Z,4.57
2023-05-19T03:37:04.166Z,4.82
2023-05-19T03:39:31.607Z,4.40
2023-05-19T03:41:58.946Z,4.60
2023-05-19T03:44:26.437Z,3.90
2023-05-19T03:46:55.291Z,4.07
2023-05-19T03:49:48.775Z,4.25
2023-05-19T03:52:49.311Z,4.10
2023-05-19T03:55:31.394Z,3.75
2023-05-19T03:58:03.339Z,3.80
2023-05-19T04:00:41.339Z,4.10
2023-05-19T04:03:12.219Z,3.80
2023-05-19T04:05:47.805Z,4.83
2023-05-19T04:08:37.037Z,4.20
2023-05-19T04:11:16.859Z,4.38
2023-05-19T04:13:45.327Z,4.10
2023-05-19T04:16:33.166Z,3.95
2023-05-19T04:19:22.077Z,4.37
2023-05-19T04:21:49.659Z,4.90
2023-05-19T04:24:19.607Z,4.38
2023-05-19T04:26:50.564Z,4.10
2023-05-19T04:29:19.569Z,4.38
2023-05-19T04:31:47.431Z,4.47
2023-05-19T04:34:17.209Z,4.40
2023-05-19T04:36:45.077Z,4.63
2023-05-19T04:39:12.709Z,4.53
2023-05-19T04:41:45.129Z,5.00
2023-05-19T04:44:18.613Z,4.70
2023-05-19T04:46:48.927Z,4.20
2023-05-19T04:49:16.869Z,4.35
2023-05-19T04:51:46.342Z,4.65
2023-05-19T04:54:16.085Z,4.18
2023-05-19T04:56:44.627Z,4.87
2023-05-19T04:59:12.167Z,4.30
2023-05-19T05:01:40.970Z,4.20
2023-05-19T05:04:11.133Z,4.18
2023-05-19T05:06:39.308Z,4.40
2023-05-19T05:09:07.505Z,4.67
2023-05-19T05:11:41.646Z,4.03
2023-05-19T05:14:12.572Z,4.10
2023-05-19T05:16:40.316Z,4.13
2023-05-19T05:19:09.763Z,4.00
2023-05-19T05:21:37.987Z,4.23
2023-05-19T05:24:05.717Z,3.75
2023-05-19T05:26:34.252Z,3.50
2023-05-19T05:29:02.296Z,4.07
2023-05-19T05:31:34.559Z,3.78
2023-05-19T05:34:04.699Z,4.07
2023-05-19T05:36:35.534Z,3.72
2023-05-19T05:39:02.830Z,3.60
2023-05-19T05:41:35.631Z,3.55
2023-05-19T05:44:11.869Z,3.50
2023-05-19T05:46:41.993Z,3.90
2023-05-19T05:49:12.823Z,3.63
2023-05-19T05:51:57.877Z,4.22
2023-05-19T05:54:36.173Z,3.25
2023-05-19T05:57:04.497Z,3.55
2023-05-19T05:59:35.389Z,3.50
2023-05-19T06:02:02.921Z,3.70
2023-05-19T06:04:36.748Z,3.53
2023-05-19T06:07:04.983Z,3.20
2023-05-19T06:09:42.040Z,3.35
2023-05-19T06:12:09.917Z,3.40
2023-05-19T06:14:49.981Z,3.55
2023-05-19T06:17:43.353Z,3.47
2023-05-19T06:20:11.151Z,3.80
2023-05-19T06:22:38.563Z,3.38
2023-05-19T06:25:06.828Z,3.27
2023-05-19T06:27:34.936Z,3.75
2023-05-19T06:30:03.301Z,3.03
2023-05-19T06:32:36.124Z,3.67
2023-05-19T06:35:04.723Z,3.40
2023-05-19T06:37:31.926Z,3.40
2023-05-19T06:39:59.511Z,3.53
2023-05-19T06:42:27.188Z,3.20
2023-05-19T06:45:22.099Z,3.13
2023-05-19T06:47:54.960Z,3.63
2023-05-19T06:50:25.214Z,2.80
2023-05-19T06:52:55.029Z,3.53
2023-05-19T06:55:23.769Z,3.50
2023-05-19T06:57:54.232Z,3.08
2023-05-19T07:00:23.820Z,3.78
2023-05-19T07:02:53.187Z,3.30
2023-05-19T07:05:23.786Z,3.25
2023-05-19T07:07:55.622Z,3.13
2023-05-19T07:10:27.764Z,3.30
2023-05-19T07:12:55.771Z,3.50
2023-05-19T07:15:25.396Z,3.53
2023-05-19T07:17:52.759Z,3.10
2023-05-19T07:20:26.466Z,3.67
2023-05-19T07:22:55.267Z,3.65
2023-05-19T07:25:22.626Z,3.47
2023-05-19T07:27:50.195Z,3.37
2023-05-19T07:30:19.950Z,3.50
2023-05-19T07:32:48.548Z,3.33
2023-05-19T07:35:16.122Z,3.65
2023-05-19T07:37:43.420Z,3.50
2023-05-19T07:40:20.042Z,4.17
2023-05-19T07:42:50.329Z,3.42
2023-05-19T07:45:18.011Z,3.85
2023-05-19T07:47:46.857Z,3.50
2023-05-19T07:50:14.375Z,3.38
2023-05-19T07:52:41.941Z,3.60
2023-05-19T07:55:09.372Z,3.42
2023-05-19T07:57:37.026Z,3.50
2023-05-19T08:00:08.359Z,3.38
2023-05-19T08:02:39.090Z,3.13
2023-05-19T08:05:06.854Z,3.43
2023-05-19T08:07:35.241Z,3.55
2023-05-19T08:10:04.805Z,3.28
2023-05-19T08:12:32.809Z,3.17
2023-05-19T08:15:07.814Z,2.95
2023-05-19T08:17:35.248Z,2.90
2023-05-19T08:20:05.611Z,3.30
2023-05-19T08:22:43.887Z,3.10
2023-05-19T08:25:12.017Z,3.00
2023-05-19T08:27:42.225Z,2.67
2023-05-19T08:30:09.900Z,2.90
2023-05-19T08:32:37.333Z,3.13
2023-05-19T08:35:05.815Z,2.90
2023-05-19T08:37:34.116Z,3.08
2023-05-19T08:40:01.612Z,2.70
2023-05-19T08:42:28.813Z,2.53
2023-05-19T08:44:56.178Z,2.90
2023-05-19T08:47:24.712Z,3.03
2023-05-19T08:49:56.528Z,2.63
2023-05-19T08:52:49.533Z,2.88
2023-05-19T08:55:37.312Z,2.77
2023-05-19T08:58:05.295Z,2.80
2023-05-19T09:00:35.739Z,2.70
2023-05-19T09:03:17.533Z,2.70
2023-05-19T09:05:50.495Z,2.55
2023-05-19T09:08:18.913Z,2.80
2023-05-19T09:10:46.608Z,2.83
2023-05-19T09:13:17.237Z,2.90
2023-05-19T09:15:47.107Z,2.30
2023-05-19T09:18:15.690Z,2.55
2023-05-19T09:20:43.797Z,2.77
2023-05-19T09:23:17.837Z,2.90
2023-05-19T09:25:49.493Z,2.95
2023-05-19T09:28:45.986Z,3.22
2023-05-19T09:31:13.414Z,2.70
2023-05-19T09:33:46.072Z,2.90
2023-05-19T09:36:14.343Z,3.55
2023-05-19T09:38:43.544Z,3.10
2023-05-19T09:41:10.974Z,3.20
2023-05-19T09:43:38.256Z,3.30
2023-05-19T09:46:11.810Z,3.40
2023-05-19T09:48:40.556Z,3.30
2023-05-19T09:51:08.666Z,3.40
2023-05-19T09:53:36.925Z,3.60
2023-05-19T09:56:04.520Z,3.70
2023-05-19T09:58:35.001Z,3.80
2023-05-19T10:01:02.613Z,3.30
2023-05-19T10:03:30.368Z,3.97
2023-05-19T10:05:57.948Z,3.90
2023-05-19T10:08:30.913Z,3.92
2023-05-19T10:10:58.522Z,3.53
2023-05-19T10:13:26.467Z,3.50
2023-05-19T10:15:58.634Z,3.60
2023-05-19T10:21:17.366Z,3.40
2023-05-19T10:23:46.316Z,3.70
2023-05-19T10:26:14.065Z,3.75
2023-05-19T10:28:43.493Z,3.95
2023-05-19T10:31:14.333Z,3.72
2023-05-19T10:33:56.979Z,3.60
2023-05-19T10:36:29.569Z,3.60
2023-05-19T10:39:20.483Z,3.33
2023-05-19T10:41:56.551Z,3.40
2023-05-19T10:44:44.437Z,3.80
2023-05-19T10:47:12.681Z,3.50
2023-05-19T10:49:40.298Z,4.27
2023-05-19T10:52:22.193Z,3.70
2023-05-19T10:54:49.888Z,3.50
2023-05-19T10:57:18.207Z,3.50
2023-05-19T10:59:45.601Z,3.67
2023-05-19T11:02:34.197Z,3.73
2023-05-19T11:05:08.485Z,3.53
2023-05-19T11:07:35.961Z,3.90
2023-05-19T11:10:06.902Z,3.47
2023-05-19T11:12:47.657Z,3.40
2023-05-19T11:15:15.954Z,3.40
2023-05-19T11:17:45.761Z,3.63
2023-05-19T11:20:26.263Z,3.38
2023-05-19T11:23:02.894Z,3.75
2023-05-19T11:25:42.167Z,3.70
2023-05-19T11:28:12.516Z,3.70
2023-05-19T11:30:46.566Z,3.53
2023-05-19T11:33:14.597Z,3.25
2023-05-19T11:35:51.803Z,3.70
2023-05-19T11:38:21.518Z,3.30
2023-05-19T11:40:50.048Z,3.27
2023-05-19T11:43:17.559Z,3.50
2023-05-19T11:45:45.312Z,3.80
2023-05-19T11:48:13.169Z,3.40
2023-05-19T11:50:44.455Z,3.55
2023-05-19T11:53:13.426Z,3.20
2023-05-19T11:55:46.225Z,3.22
2023-05-19T11:58:14.003Z,3.13
2023-05-19T12:00:41.964Z,3.50
2023-05-19T12:03:09.950Z,3.25
2023-05-19T12:05:42.044Z,3.17
2023-05-19T12:08:11.215Z,4.00
2023-05-19T12:10:39.155Z,4.18
2023-05-19T12:13:09.833Z,3.47
2023-05-19T12:15:42.292Z,4.20
2023-05-19T12:18:11.713Z,3.73
2023-05-19T12:20:39.590Z,3.60
2023-05-19T12:23:07.305Z,3.75
2023-05-19T12:25:35.051Z,3.83
2023-05-19T12:28:05.669Z,3.80
2023-05-19T12:30:33.913Z,3.37
2023-05-19T12:33:02.954Z,3.70
2023-05-19T12:35:32.473Z,3.65
2023-05-19T12:38:03.350Z,3.72
2023-05-19T12:40:30.660Z,3.50
2023-05-19T12:43:01.128Z,4.00
2023-05-19T12:45:29.017Z,3.58
2023-05-19T12:47:56.514Z,3.60
2023-05-19T12:50:30.484Z,3.50
2023-05-19T12:52:59.997Z,3.58
2023-05-19T12:55:27.474Z,3.37
2023-05-19T12:57:58.694Z,3.58
2023-05-19T13:00:29.206Z,3.42
2023-05-19T13:03:00.980Z,3.90
2023-05-19T13:05:28.883Z,3.65
2023-05-19T13:07:58.992Z,3.50
2023-05-19T13:10:29.792Z,3.58
2023-05-19T13:12:57.693Z,3.63
2023-05-19T13:15:26.674Z,3.42
2023-05-19T13:17:54.580Z,3.63
2023-05-19T13:20:28.692Z,3.23
2023-05-19T13:22:59.532Z,3.60
2023-05-19T13:25:31.291Z,4.28
2023-05-19T13:28:04.365Z,4.07
2023-05-19T13:30:38.980Z,4.20
2023-05-19T13:33:15.249Z,3.60
2023-05-19T13:35:42.689Z,4.00
2023-05-19T13:38:10.564Z,3.65
2023-05-19T13:40:42.818Z,3.13
2023-05-19T13:43:21.530Z,3.50
2023-05-19T13:45:51.537Z,3.90
2023-05-19T13:48:18.939Z,3.75
2023-05-19T13:50:46.380Z,3.63
2023-05-19T13:53:16.614Z,3.80
2023-05-19T13:55:47.180Z,3.38
2023-05-19T13:58:17.147Z,3.57
2023-05-19T14:00:44.695Z,3.40
2023-05-19T14:03:23.891Z,3.60
2023-05-19T14:05:51.389Z,4.18
2023-05-19T14:08:21.420Z,3.80
2023-05-19T14:10:49.126Z,3.73
2023-05-19T14:13:32.627Z,3.50
2023-05-19T14:16:17.056Z,3.47
2023-05-19T14:18:45.512Z,3.33
2023-05-19T14:21:18.542Z,3.50
2023-05-19T14:23:49.104Z,3.80
2023-05-19T14:26:23.046Z,3.90
2023-05-19T14:28:54.562Z,5.90
2023-05-19T14:31:24.293Z,3.75
2023-05-19T14:33:55.583Z,3.60
2023-05-19T14:36:26.641Z,3.27
2023-05-19T14:38:54.021Z,3.70
2023-05-19T14:41:22.504Z,3.53
2023-05-19T14:43:50.679Z,3.45
2023-05-19T14:46:18.756Z,3.15
2023-05-19T14:48:46.301Z,3.30
2023-05-19T14:51:14.860Z,3.38
2023-05-19T14:53:42.695Z,3.28
2023-05-19T14:56:20.657Z,3.35
2023-05-19T14:58:48.271Z,3.40
2023-05-19T15:01:16.681Z,3.17
2023-05-19T15:03:44.088Z,3.00
2023-05-19T15:06:11.581Z,3.55
2023-05-19T15:08:41.206Z,2.90
2023-05-19T15:11:08.705Z,2.90
2023-05-19T15:13:36.121Z,3.30
2023-05-19T15:16:16.934Z,2.90
2023-05-19T15:18:45.611Z,2.70
2023-05-19T15:21:13.314Z,3.20
2023-05-19T15:23:43.359Z,3.30
2023-05-19T15:26:10.760Z,3.17
2023-05-19T15:28:37.954Z,2.80
2023-05-19T15:31:05.366Z,3.00
2023-05-19T15:33:32.810Z,2.78
2023-05-19T15:36:09.456Z,2.55
2023-05-19T15:38:41.601Z,2.80
2023-05-19T15:41:09.208Z,2.90
2023-05-19T15:43:36.570Z,2.85
2023-05-19T15:46:05.361Z,2.80
2023-05-19T15:48:36.596Z,3.22
2023-05-19T15:51:03.958Z,3.13
2023-05-19T15:53:31.266Z,3.10
2023-05-19T15:55:58.626Z,2.70
2023-05-19T15:58:28.811Z,3.03
2023-05-19T16:00:56.629Z,3.03
2023-05-19T16:03:24.112Z,3.17
2023-05-19T16:05:53.274Z,3.40
2023-05-19T16:08:20.797Z,3.10
2023-05-19T16:10:48.296Z,3.17
2023-05-19T16:13:16.785Z,3.10
2023-05-19T16:15:44.126Z,3.30
2023-05-19T16:18:14.664Z,3.38
2023-05-19T16:20:44.372Z,3.15
2023-05-19T16:23:11.735Z,3.47
2023-05-19T16:25:39.082Z,3.30
2023-05-19T16:28:07.531Z,3.07
2023-05-19T16:30:37.439Z,2.90
2023-05-19T16:33:12.835Z,3.30
2023-05-19T16:35:44.057Z,3.00
2023-05-19T16:38:13.065Z,3.20
2023-05-19T16:40:40.503Z,2.90
2023-05-19T16:43:08.101Z,3.08
2023-05-19T16:45:35.508Z,3.22
2023-05-19T16:48:04.007Z,3.45
2023-05-19T16:50:31.377Z,3.67
2023-05-19T16:53:01.007Z,3.60
2023-05-19T16:55:30.241Z,4.10
2023-05-19T16:57:57.617Z,3.80
2023-05-19T17:00:25.130Z,3.67
2023-05-19T17:02:52.461Z,3.85
2023-05-19T17:05:21.903Z,3.90
2023-05-19T17:07:50.202Z,3.78
2023-05-19T17:10:17.815Z,3.85
2023-05-19T17:12:49.340Z,3.67
2023-05-19T17:15:17.175Z,3.75
2023-05-19T17:17:44.583Z,4.27
2023-05-19T17:20:13.667Z,3.55
2023-05-19T17:22:42.233Z,3.70
2023-05-19T17:25:11.094Z,3.63
2023-05-19T17:27:38.393Z,3.22
2023-05-19T17:30:06.111Z,3.70
2023-05-19T17:32:36.474Z,3.97
2023-05-19T17:35:05.761Z,3.70
2023-05-19T17:37:33.552Z,3.90
2023-05-19T17:40:01.266Z,3.70
2023-05-19T17:42:29.560Z,4.17
2023-05-19T17:44:56.961Z,3.78
2023-05-19T17:47:25.888Z,4.18
2023-05-19T17:49:54.413Z,4.13
2023-05-19T17:52:28.965Z,4.20
2023-05-19T17:55:00.381Z,4.57
2023-05-19T17:57:32.838Z,3.90
2023-05-19T18:00:00.666Z,4.00
2023-05-19T18:02:28.486Z,4.10
2023-05-19T18:05:02.209Z,3.80
2023-05-19T18:07:33.215Z,3.77
2023-05-19T18:10:07.365Z,3.60
2023-05-19T18:12:39.563Z,3.35
2023-05-19T18:15:10.008Z,3.60
2023-05-19T18:17:37.936Z,3.65
2023-05-19T18:20:05.685Z,3.33
2023-05-19T18:22:32.948Z,3.30
2023-05-19T18:25:01.244Z,3.72
2023-05-19T18:27:33.707Z,3.83
2023-05-19T18:30:10.226Z,3.20
2023-05-19T18:32:42.071Z,3.53
2023-05-19T18:35:10.030Z,3.67
2023-05-19T18:37:37.370Z,3.50
2023-05-19T18:40:06.232Z,3.50
2023-05-19T18:42:35.984Z,3.38
2023-05-19T18:45:04.087Z,3.67
2023-05-19T18:47:31.578Z,3.88
2023-05-19T18:49:59.202Z,3.92
2023-05-19T18:52:30.784Z,3.58
2023-05-19T18:54:58.281Z,3.30
2023-05-19T18:57:25.752Z,3.80
2023-05-19T18:59:54.033Z,4.25
2023-05-19T19:02:26.667Z,3.53
2023-05-19T19:04:57.107Z,3.45
2023-05-19T19:07:28.104Z,3.65
2023-05-19T19:09:56.320Z,3.70
2023-05-19T19:12:32.458Z,3.40
2023-05-19T19:14:59.678Z,3.40
2023-05-19T19:17:27.079Z,3.30
2023-05-19T19:19:54.977Z,3.42
2023-05-19T19:22:23.009Z,3.60
2023-05-19T19:24:52.305Z,3.25
2023-05-19T19:27:21.324Z,3.75
2023-05-19T19:29:49.432Z,3.45
2023-05-19T19:32:17.268Z,3.67
2023-05-19T19:34:44.773Z,3.37
2023-05-19T19:37:14.713Z,3.75
2023-05-19T19:39:42.929Z,3.33
2023-05-19T19:42:10.407Z,3.47
2023-05-19T19:44:37.757Z,3.80
2023-05-19T19:47:09.829Z,3.33
2023-05-19T19:49:37.096Z,3.67
2023-05-19T19:52:04.726Z,3.75
2023-05-19T19:54:32.816Z,3.20
2023-05-19T19:57:02.857Z,3.15
2023-05-19T19:59:30.657Z,3.70
2023-05-19T20:01:58.275Z,3.50
2023-05-19T20:04:25.654Z,3.80
2023-05-19T20:06:53.268Z,3.70
2023-05-19T20:09:23.314Z,3.67
2023-05-19T20:11:53.826Z,3.60
2023-05-19T20:14:21.326Z,3.65
2023-05-19T20:16:48.487Z,3.45
2023-05-19T20:19:15.815Z,3.38
2023-05-19T20:21:43.230Z,3.55
2023-05-19T20:24:10.543Z,3.57
2023-05-19T20:26:40.758Z,3.33
2023-05-19T20:29:08.037Z,3.75
2023-05-19T20:31:40.947Z,3.53
2023-05-19T20:34:09.331Z,3.80
2023-05-19T20:36:42.676Z,3.73
2023-05-19T20:39:13.048Z,4.10
2023-05-19T20:41:40.306Z,3.38
2023-05-19T20:44:08.834Z,3.42
2023-05-19T20:46:39.447Z,3.80
2023-05-19T20:49:09.066Z,3.20
2023-05-19T20:51:41.334Z,3.60
2023-05-19T20:54:08.608Z,3.58
2023-05-19T20:56:36.393Z,4.07
2023-05-19T20:59:04.463Z,3.40
2023-05-19T21:01:31.884Z,3.70
2023-05-19T21:03:59.384Z,3.80
2023-05-19T21:06:27.770Z,3.97
2023-05-19T21:09:03.918Z,3.72
2023-05-19T21:11:32.240Z,3.80
2023-05-19T21:14:01.775Z,3.90
2023-05-19T21:16:29.114Z,3.78
2023-05-19T21:18:56.749Z,4.13
2023-05-19T21:21:24.400Z,4.53
2023-05-19T21:23:53.313Z,3.85
2023-05-19T21:26:24.432Z,4.20
2023-05-19T21:28:54.855Z,4.00
2023-05-19T21:31:22.307Z,3.95
2023-05-19T21:33:49.939Z,4.10
2023-05-19T21:36:17.726Z,4.20
2023-05-19T21:38:51.797Z,4.27
2023-05-19T21:41:22.069Z,3.90
2023-05-19T21:43:49.371Z,3.70
2023-05-19T21:46:17.108Z,4.60
2023-05-19T21:48:44.604Z,4.20
2023-05-19T21:51:12.962Z,4.60
2023-05-19T21:53:44.047Z,4.60
2023-05-19T21:56:13.289Z,4.13
2023-05-19T21:58:44.470Z,4.30
2023-05-19T22:01:14.776Z,4.35
2023-05-19T22:03:48.404Z,4.33
2023-05-19T22:06:18.263Z,4.07
2023-05-19T22:08:50.921Z,4.35
2023-05-19T22:11:22.462Z,4.50
2023-05-19T22:13:51.666Z,4.07
2023-05-19T22:16:21.772Z,4.03
2023-05-19T22:18:54.442Z,4.72
2023-05-19T22:21:25.078Z,4.18
2023-05-19T22:23:56.409Z,4.60
2023-05-19T22:26:26.278Z,4.68
2023-05-19T22:28:53.919Z,3.83
2023-05-19T22:31:21.642Z,4.60
2023-05-19T22:33:48.997Z,5.00
2023-05-19T22:36:17.536Z,4.35
2023-05-19T22:38:48.051Z,4.82
2023-05-19T22:41:15.522Z,4.97
2023-05-19T22:43:44.556Z,4.63
2023-05-19T22:46:18.434Z,4.65
2023-05-19T22:48:52.058Z,4.50
2023-05-19T22:51:24.776Z,4.40
2023-05-19T22:53:53.503Z,4.97
2023-05-19T22:56:24.874Z,4.03
2023-05-19T22:58:54.970Z,4.30
2023-05-19T23:01:22.741Z,4.25
2023-05-19T23:03:52.577Z,3.92
2023-05-19T23:06:20.000Z,3.90
2023-05-19T23:09:00.836Z,4.07
2023-05-19T23:11:42.878Z,4.25
2023-05-19T23:14:15.728Z,4.03
2023-05-19T23:16:44.005Z,3.85
2023-05-19T23:19:14.407Z,4.13
2023-05-19T23:21:41.679Z,4.43
2023-05-19T23:24:11.500Z,3.80
2023-05-19T23:26:41.066Z,3.47
2023-05-19T23:29:19.301Z,3.90
2023-05-19T23:31:46.721Z,3.80
2023-05-19T23:34:16.710Z,3.50
2023-05-19T23:36:50.040Z,4.20
2023-05-19T23:39:17.354Z,3.83
2023-05-19T23:41:50.212Z,4.18
2023-05-19T23:44:21.836Z,3.43
2023-05-19T23:46:49.045Z,4.05
2023-05-19T23:49:20.245Z,4.18
2023-05-19T23:51:50.388Z,4.13
2023-05-19T23:54:17.528Z,3.67
2023-05-19T23:56:44.879Z,4.33
2023-05-19T23:59:15.808Z,4.30
